sensor_id;sensor_type;location;lat;lon;timestamp;P1;durP1;ratioP1;P2;durP2;ratioP2
66380;SDS011;53177;52.648;1.214;2023-09-12T00:01:03;8.70;;;3.55;;
66380;SDS011;53177;52.648;1.214;2023-09-12T00:03:30;6.23;;;3.20;;
66380;SDS011;53177;52.648;1.214;2023-09-12T00:05:56;7.95;;;3.45;;
66380;SDS011;53177;52.648;1.214;2023-09-12T00:08:23;7.90;;;3.33;;
66380;SDS011;53177;52.648;1.214;2023-09-12T00:11:04;7.73;;;3.40;;
66380;SDS011;53177;52.648;1.214;2023-09-12T00:13:35;8.48;;;3.40;;
66380;SDS011;53177;52.648;1.214;2023-09-12T00:16:01;7.87;;;3.40;;
66380;SDS011;53177;52.648;1.214;2023-09-12T00:18:26;6.70;;;3.40;;
66380;SDS011;53177;52.648;1.214;2023-09-12T00:20:52;8.50;;;3.80;;
66380;SDS011;53177;52.648;1.214;2023-09-12T00:23:18;7.47;;;3.50;;
66380;SDS011;53177;52.648;1.214;2023-09-12T00:25:45;7.07;;;3.20;;
66380;SDS011;53177;52.648;1.214;2023-09-12T00:28:10;6.97;;;3.30;;
66380;SDS011;53177;52.648;1.214;2023-09-12T00:30:36;7.13;;;3.40;;
66380;SDS011;53177;52.648;1.214;2023-09-12T00:33:01;6.27;;;3.27;;
66380;SDS011;53177;52.648;1.214;2023-09-12T00:35:26;7.80;;;3.53;;
66380;SDS011;53177;52.648;1.214;2023-09-12T00:37:52;7.93;;;3.40;;
66380;SDS011;53177;52.648;1.214;2023-09-12T00:40:21;9.10;;;3.57;;
66380;SDS011;53177;52.648;1.214;2023-09-12T00:42:47;6.90;;;3.35;;
66380;SDS011;53177;52.648;1.214;2023-09-12T00:45:13;7.93;;;3.20;;
66380;SDS011;53177;52.648;1.214;2023-09-12T00:47:38;8.80;;;3.40;;
66380;SDS011;53177;52.648;1.214;2023-09-12T00:50:04;6.57;;;3.10;;
66380;SDS011;53177;52.648;1.214;2023-09-12T00:52:30;7.88;;;3.30;;
66380;SDS011;53177;52.648;1.214;2023-09-12T00:54:59;8.73;;;3.43;;
66380;SDS011;53177;52.648;1.214;2023-09-12T00:57:25;7.03;;;2.88;;
66380;SDS011;53177;52.648;1.214;2023-09-12T00:59:51;6.33;;;3.03;;
66380;SDS011;53177;52.648;1.214;2023-09-12T01:02:18;5.43;;;2.73;;
66380;SDS011;53177;52.648;1.214;2023-09-12T01:04:44;6.78;;;3.55;;
66380;SDS011;53177;52.648;1.214;2023-09-12T01:07:10;7.03;;;3.20;;
66380;SDS011;53177;52.648;1.214;2023-09-12T01:09:35;6.03;;;3.10;;
66380;SDS011;53177;52.648;1.214;2023-09-12T01:12:01;7.80;;;3.40;;
66380;SDS011;53177;52.648;1.214;2023-09-12T01:14:28;7.28;;;3.90;;
66380;SDS011;53177;52.648;1.214;2023-09-12T01:16:54;8.15;;;3.40;;
66380;SDS011;53177;52.648;1.214;2023-09-12T01:19:19;8.37;;;4.10;;
66380;SDS011;53177;52.648;1.214;2023-09-12T01:27:47;7.38;;;3.88;;
66380;SDS011;53177;52.648;1.214;2023-09-12T01:30:20;7.57;;;3.97;;
66380;SDS011;53177;52.648;1.214;2023-09-12T01:32:47;7.20;;;3.90;;
66380;SDS011;53177;52.648;1.214;2023-09-12T01:35:13;8.48;;;4.38;;
66380;SDS011;53177;52.648;1.214;2023-09-12T01:37:39;7.43;;;4.30;;
66380;SDS011;53177;52.648;1.214;2023-09-12T01:40:04;9.10;;;4.97;;
66380;SDS011;53177;52.648;1.214;2023-09-12T01:42:35;9.60;;;5.10;;
66380;SDS011;53177;52.648;1.214;2023-09-12T01:45:02;8.55;;;4.47;;
66380;SDS011;53177;52.648;1.214;2023-09-12T01:47:29;10.18;;;4.72;;
66380;SDS011;53177;52.648;1.214;2023-09-12T01:49:56;9.20;;;5.27;;
66380;SDS011;53177;52.648;1.214;2023-09-12T01:52:24;8.75;;;4.60;;
66380;SDS011;53177;52.648;1.214;2023-09-12T01:54:51;9.80;;;4.93;;
66380;SDS011;53177;52.648;1.214;2023-09-12T01:57:18;7.40;;;4.13;;
66380;SDS011;53177;52.648;1.214;2023-09-12T01:59:46;9.07;;;4.18;;
66380;SDS011;53177;52.648;1.214;2023-09-12T02:02:12;7.20;;;4.20;;
66380;SDS011;53177;52.648;1.214;2023-09-12T02:04:38;8.03;;;4.20;;
66380;SDS011;53177;52.648;1.214;2023-09-12T02:07:03;8.32;;;4.60;;
66380;SDS011;53177;52.648;1.214;2023-09-12T02:09:29;6.80;;;3.83;;
66380;SDS011;53177;52.648;1.214;2023-09-12T02:11:54;9.63;;;4.37;;
66380;SDS011;53177;52.648;1.214;2023-09-12T02:14:19;9.00;;;4.47;;
66380;SDS011;53177;52.648;1.214;2023-09-12T02:16:45;7.83;;;4.30;;
66380;SDS011;53177;52.648;1.214;2023-09-12T02:19:10;8.55;;;4.50;;
66380;SDS011;53177;52.648;1.214;2023-09-12T02:21:36;10.23;;;5.50;;
66380;SDS011;53177;52.648;1.214;2023-09-12T02:24:01;10.00;;;5.47;;
66380;SDS011;53177;52.648;1.214;2023-09-12T02:26:26;9.90;;;5.57;;
66380;SDS011;53177;52.648;1.214;2023-09-12T02:28:52;12.53;;;6.10;;
66380;SDS011;53177;52.648;1.214;2023-09-12T02:31:17;13.67;;;6.67;;
66380;SDS011;53177;52.648;1.214;2023-09-12T02:33:42;12.93;;;7.00;;
66380;SDS011;53177;52.648;1.214;2023-09-12T02:36:08;14.43;;;6.90;;
66380;SDS011;53177;52.648;1.214;2023-09-12T02:38:33;12.13;;;6.60;;
66380;SDS011;53177;52.648;1.214;2023-09-12T02:40:59;15.43;;;6.72;;
66380;SDS011;53177;52.648;1.214;2023-09-12T02:43:24;14.23;;;7.10;;
66380;SDS011;53177;52.648;1.214;2023-09-12T02:45:50;11.87;;;6.70;;
66380;SDS011;53177;52.648;1.214;2023-09-12T02:48:15;11.17;;;6.33;;
66380;SDS011;53177;52.648;1.214;2023-09-12T02:50:40;10.33;;;5.47;;
66380;SDS011;53177;52.648;1.214;2023-09-12T02:53:06;11.17;;;5.50;;
66380;SDS011;53177;52.648;1.214;2023-09-12T02:55:32;12.20;;;6.20;;
66380;SDS011;53177;52.648;1.214;2023-09-12T02:57:58;14.90;;;7.55;;
66380;SDS011;53177;52.648;1.214;2023-09-12T03:00:23;15.23;;;7.27;;
66380;SDS011;53177;52.648;1.214;2023-09-12T03:02:49;15.47;;;7.53;;
66380;SDS011;53177;52.648;1.214;2023-09-12T03:05:14;13.40;;;7.07;;
66380;SDS011;53177;52.648;1.214;2023-09-12T03:07:39;12.47;;;6.70;;
66380;SDS011;53177;52.648;1.214;2023-09-12T03:10:05;15.23;;;7.07;;
66380;SDS011;53177;52.648;1.214;2023-09-12T03:12:31;12.52;;;6.88;;
66380;SDS011;53177;52.648;1.214;2023-09-12T03:14:56;18.07;;;8.30;;
66380;SDS011;53177;52.648;1.214;2023-09-12T03:17:22;15.07;;;7.53;;
66380;SDS011;53177;52.648;1.214;2023-09-12T03:19:47;13.90;;;7.03;;
66380;SDS011;53177;52.648;1.214;2023-09-12T03:22:13;13.75;;;6.85;;
66380;SDS011;53177;52.648;1.214;2023-09-12T03:24:38;14.03;;;7.70;;
66380;SDS011;53177;52.648;1.214;2023-09-12T03:27:03;14.97;;;7.57;;
66380;SDS011;53177;52.648;1.214;2023-09-12T03:29:29;16.20;;;7.70;;
66380;SDS011;53177;52.648;1.214;2023-09-12T03:31:54;15.90;;;7.50;;
66380;SDS011;53177;52.648;1.214;2023-09-12T03:34:19;16.67;;;8.33;;
66380;SDS011;53177;52.648;1.214;2023-09-12T03:36:45;15.63;;;7.83;;
66380;SDS011;53177;52.648;1.214;2023-09-12T03:39:10;17.73;;;8.63;;
66380;SDS011;53177;52.648;1.214;2023-09-12T03:41:38;17.07;;;8.63;;
66380;SDS011;53177;52.648;1.214;2023-09-12T03:44:04;15.13;;;7.47;;
66380;SDS011;53177;52.648;1.214;2023-09-12T03:46:29;14.75;;;6.57;;
66380;SDS011;53177;52.648;1.214;2023-09-12T03:48:55;16.13;;;7.87;;
66380;SDS011;53177;52.648;1.214;2023-09-12T03:51:20;15.30;;;7.93;;
66380;SDS011;53177;52.648;1.214;2023-09-12T03:53:46;19.40;;;8.30;;
66380;SDS011;53177;52.648;1.214;2023-09-12T03:56:12;19.08;;;8.50;;
66380;SDS011;53177;52.648;1.214;2023-09-12T03:58:39;14.43;;;7.18;;
66380;SDS011;53177;52.648;1.214;2023-09-12T04:01:05;18.47;;;8.77;;
66380;SDS011;53177;52.648;1.214;2023-09-12T04:03:30;16.30;;;7.70;;
66380;SDS011;53177;52.648;1.214;2023-09-12T04:05:55;16.87;;;7.40;;
66380;SDS011;53177;52.648;1.214;2023-09-12T04:08:21;17.85;;;8.02;;
66380;SDS011;53177;52.648;1.214;2023-09-12T04:10:46;17.27;;;7.47;;
66380;SDS011;53177;52.648;1.214;2023-09-12T04:13:12;19.57;;;8.57;;
66380;SDS011;53177;52.648;1.214;2023-09-12T04:15:37;18.43;;;7.87;;
66380;SDS011;53177;52.648;1.214;2023-09-12T04:18:03;19.48;;;8.52;;
66380;SDS011;53177;52.648;1.214;2023-09-12T04:20:29;17.77;;;7.90;;
66380;SDS011;53177;52.648;1.214;2023-09-12T04:22:54;17.13;;;7.27;;
66380;SDS011;53177;52.648;1.214;2023-09-12T04:25:19;14.63;;;6.80;;
66380;SDS011;53177;52.648;1.214;2023-09-12T04:27:45;15.87;;;7.33;;
66380;SDS011;53177;52.648;1.214;2023-09-12T04:30:11;16.03;;;7.07;;
66380;SDS011;53177;52.648;1.214;2023-09-12T04:32:37;14.98;;;6.40;;
66380;SDS011;53177;52.648;1.214;2023-09-12T04:35:03;14.87;;;6.43;;
66380;SDS011;53177;52.648;1.214;2023-09-12T04:37:29;12.23;;;6.30;;
66380;SDS011;53177;52.648;1.214;2023-09-12T04:39:54;14.00;;;6.63;;
66380;SDS011;53177;52.648;1.214;2023-09-12T04:42:19;14.77;;;6.10;;
66380;SDS011;53177;52.648;1.214;2023-09-12T04:44:45;14.38;;;6.07;;
66380;SDS011;53177;52.648;1.214;2023-09-12T04:47:11;13.47;;;6.47;;
66380;SDS011;53177;52.648;1.214;2023-09-12T04:49:36;12.47;;;6.00;;
66380;SDS011;53177;52.648;1.214;2023-09-12T04:52:01;14.33;;;6.03;;
66380;SDS011;53177;52.648;1.214;2023-09-12T04:54:27;17.45;;;7.63;;
66380;SDS011;53177;52.648;1.214;2023-09-12T04:56:52;13.53;;;6.27;;
66380;SDS011;53177;52.648;1.214;2023-09-12T04:59:18;13.50;;;6.93;;
66380;SDS011;53177;52.648;1.214;2023-09-12T05:01:43;14.83;;;7.20;;
66380;SDS011;53177;52.648;1.214;2023-09-12T05:04:12;14.63;;;7.10;;
66380;SDS011;53177;52.648;1.214;2023-09-12T05:06:40;18.43;;;7.87;;
66380;SDS011;53177;52.648;1.214;2023-09-12T05:09:08;14.60;;;7.07;;
66380;SDS011;53177;52.648;1.214;2023-09-12T05:11:37;14.75;;;7.05;;
66380;SDS011;53177;52.648;1.214;2023-09-12T05:14:07;17.25;;;7.28;;
66380;SDS011;53177;52.648;1.214;2023-09-12T05:16:40;15.45;;;7.20;;
66380;SDS011;53177;52.648;1.214;2023-09-12T05:19:09;15.50;;;7.17;;
66380;SDS011;53177;52.648;1.214;2023-09-12T05:21:37;15.90;;;7.35;;
66380;SDS011;53177;52.648;1.214;2023-09-12T05:24:04;15.30;;;7.30;;
66380;SDS011;53177;52.648;1.214;2023-09-12T05:26:34;13.32;;;6.72;;
66380;SDS011;53177;52.648;1.214;2023-09-12T05:29:02;13.70;;;6.13;;
66380;SDS011;53177;52.648;1.214;2023-09-12T05:31:32;15.90;;;8.10;;
66380;SDS011;53177;52.648;1.214;2023-09-12T05:34:07;16.02;;;6.50;;
66380;SDS011;53177;52.648;1.214;2023-09-12T05:36:34;19.50;;;7.90;;
66380;SDS011;53177;52.648;1.214;2023-09-12T05:39:01;16.85;;;7.18;;
66380;SDS011;53177;52.648;1.214;2023-09-12T05:41:35;18.17;;;8.25;;
66380;SDS011;53177;52.648;1.214;2023-09-12T05:44:00;15.23;;;7.23;;
66380;SDS011;53177;52.648;1.214;2023-09-12T05:46:26;18.23;;;7.60;;
66380;SDS011;53177;52.648;1.214;2023-09-12T05:48:51;17.65;;;8.20;;
66380;SDS011;53177;52.648;1.214;2023-09-12T05:51:16;19.20;;;8.10;;
66380;SDS011;53177;52.648;1.214;2023-09-12T05:53:42;15.93;;;7.30;;
66380;SDS011;53177;52.648;1.214;2023-09-12T05:56:07;19.30;;;7.70;;
66380;SDS011;53177;52.648;1.214;2023-09-12T05:58:32;17.27;;;7.30;;
66380;SDS011;53177;52.648;1.214;2023-09-12T06:00:59;14.90;;;7.25;;
66380;SDS011;53177;52.648;1.214;2023-09-12T06:03:24;15.63;;;6.43;;
66380;SDS011;53177;52.648;1.214;2023-09-12T06:05:50;15.53;;;6.90;;
66380;SDS011;53177;52.648;1.214;2023-09-12T06:08:15;16.88;;;6.55;;
66380;SDS011;53177;52.648;1.214;2023-09-12T06:10:41;14.40;;;6.87;;
66380;SDS011;53177;52.648;1.214;2023-09-12T06:13:06;13.70;;;6.30;;
66380;SDS011;53177;52.648;1.214;2023-09-12T06:15:31;17.37;;;6.17;;
66380;SDS011;53177;52.648;1.214;2023-09-12T06:17:57;17.77;;;6.80;;
66380;SDS011;53177;52.648;1.214;2023-09-12T06:20:22;17.00;;;6.60;;
66380;SDS011;53177;52.648;1.214;2023-09-12T06:22:48;16.05;;;7.10;;
66380;SDS011;53177;52.648;1.214;2023-09-12T06:25:14;16.52;;;7.05;;
66380;SDS011;53177;52.648;1.214;2023-09-12T06:27:39;14.70;;;6.40;;
66380;SDS011;53177;52.648;1.214;2023-09-12T06:30:05;12.83;;;6.17;;
66380;SDS011;53177;52.648;1.214;2023-09-12T06:32:31;15.43;;;6.35;;
66380;SDS011;53177;52.648;1.214;2023-09-12T06:34:56;14.63;;;6.50;;
66380;SDS011;53177;52.648;1.214;2023-09-12T06:37:22;17.77;;;7.90;;
66380;SDS011;53177;52.648;1.214;2023-09-12T06:39:50;11.90;;;6.10;;
66380;SDS011;53177;52.648;1.214;2023-09-12T06:42:16;14.68;;;6.40;;
66380;SDS011;53177;52.648;1.214;2023-09-12T06:44:41;13.43;;;6.00;;
66380;SDS011;53177;52.648;1.214;2023-09-12T06:47:07;12.65;;;5.75;;
66380;SDS011;53177;52.648;1.214;2023-09-12T06:49:34;14.02;;;5.82;;
66380;SDS011;53177;52.648;1.214;2023-09-12T06:52:01;14.57;;;6.55;;
66380;SDS011;53177;52.648;1.214;2023-09-12T06:54:26;12.38;;;6.40;;
66380;SDS011;53177;52.648;1.214;2023-09-12T06:56:52;13.47;;;5.97;;
66380;SDS011;53177;52.648;1.214;2023-09-12T06:59:17;12.57;;;5.60;;
66380;SDS011;53177;52.648;1.214;2023-09-12T07:01:43;13.47;;;5.20;;
66380;SDS011;53177;52.648;1.214;2023-09-12T07:04:09;14.57;;;5.85;;
66380;SDS011;53177;52.648;1.214;2023-09-12T07:06:35;13.63;;;5.80;;
66380;SDS011;53177;52.648;1.214;2023-09-12T07:09:00;10.38;;;4.45;;
66380;SDS011;53177;52.648;1.214;2023-09-12T07:11:26;10.70;;;4.77;;
66380;SDS011;53177;52.648;1.214;2023-09-12T07:13:51;16.90;;;5.77;;
66380;SDS011;53177;52.648;1.214;2023-09-12T07:16:16;14.77;;;5.27;;
66380;SDS011;53177;52.648;1.214;2023-09-12T07:18:42;16.33;;;5.37;;
66380;SDS011;53177;52.648;1.214;2023-09-12T07:21:08;10.15;;;4.68;;
66380;SDS011;53177;52.648;1.214;2023-09-12T07:23:36;12.70;;;5.05;;
66380;SDS011;53177;52.648;1.214;2023-09-12T07:26:01;10.60;;;4.50;;
66380;SDS011;53177;52.648;1.214;2023-09-12T07:28:27;10.32;;;4.30;;
66380;SDS011;53177;52.648;1.214;2023-09-12T07:30:56;8.10;;;3.90;;
66380;SDS011;53177;52.648;1.214;2023-09-12T07:33:22;10.35;;;3.85;;
66380;SDS011;53177;52.648;1.214;2023-09-12T07:35:47;9.82;;;3.65;;
66380;SDS011;53177;52.648;1.214;2023-09-12T07:38:13;9.93;;;3.80;;
66380;SDS011;53177;52.648;1.214;2023-09-12T07:40:42;8.77;;;3.67;;
66380;SDS011;53177;52.648;1.214;2023-09-12T07:43:07;9.37;;;3.60;;
66380;SDS011;53177;52.648;1.214;2023-09-12T07:45:34;9.52;;;3.50;;
66380;SDS011;53177;52.648;1.214;2023-09-12T07:48:03;8.30;;;3.80;;
66380;SDS011;53177;52.648;1.214;2023-09-12T07:50:31;9.43;;;3.60;;
66380;SDS011;53177;52.648;1.214;2023-09-12T07:52:56;8.13;;;3.20;;
66380;SDS011;53177;52.648;1.214;2023-09-12T07:55:21;8.67;;;3.40;;
66380;SDS011;53177;52.648;1.214;2023-09-12T07:57:47;9.50;;;3.20;;
66380;SDS011;53177;52.648;1.214;2023-09-12T08:00:12;7.67;;;3.03;;
66380;SDS011;53177;52.648;1.214;2023-09-12T08:02:39;7.88;;;3.08;;
66380;SDS011;53177;52.648;1.214;2023-09-12T08:05:05;8.40;;;3.30;;
66380;SDS011;53177;52.648;1.214;2023-09-12T08:07:31;6.97;;;3.10;;
66380;SDS011;53177;52.648;1.214;2023-09-12T08:09:57;9.67;;;3.50;;
66380;SDS011;53177;52.648;1.214;2023-09-12T08:12:23;9.55;;;3.28;;
66380;SDS011;53177;52.648;1.214;2023-09-12T08:14:54;7.55;;;2.90;;
66380;SDS011;53177;52.648;1.214;2023-09-12T08:17:19;8.45;;;3.17;;
66380;SDS011;53177;52.648;1.214;2023-09-12T08:19:45;7.57;;;3.10;;
66380;SDS011;53177;52.648;1.214;2023-09-12T08:22:11;7.00;;;2.65;;
66380;SDS011;53177;52.648;1.214;2023-09-12T08:24:37;8.18;;;2.70;;
66380;SDS011;53177;52.648;1.214;2023-09-12T08:27:04;8.33;;;2.50;;
66380;SDS011;53177;52.648;1.214;2023-09-12T08:29:31;5.63;;;2.30;;
66380;SDS011;53177;52.648;1.214;2023-09-12T08:31:57;5.60;;;2.90;;
66380;SDS011;53177;52.648;1.214;2023-09-12T08:34:23;6.78;;;2.40;;
66380;SDS011;53177;52.648;1.214;2023-09-12T08:36:48;6.00;;;2.20;;
66380;SDS011;53177;52.648;1.214;2023-09-12T08:39:14;5.93;;;2.57;;
66380;SDS011;53177;52.648;1.214;2023-09-12T08:41:41;7.18;;;2.55;;
66380;SDS011;53177;52.648;1.214;2023-09-12T08:44:11;6.22;;;2.45;;
66380;SDS011;53177;52.648;1.214;2023-09-12T08:46:38;6.47;;;2.63;;
66380;SDS011;53177;52.648;1.214;2023-09-12T08:49:06;7.28;;;2.58;;
66380;SDS011;53177;52.648;1.214;2023-09-12T08:51:32;7.90;;;2.50;;
66380;SDS011;53177;52.648;1.214;2023-09-12T08:53:58;7.50;;;2.30;;
66380;SDS011;53177;52.648;1.214;2023-09-12T08:56:24;6.30;;;2.70;;
66380;SDS011;53177;52.648;1.214;2023-09-12T08:58:50;6.30;;;2.37;;
66380;SDS011;53177;52.648;1.214;2023-09-12T09:01:16;7.55;;;2.60;;
66380;SDS011;53177;52.648;1.214;2023-09-12T09:03:44;5.97;;;2.50;;
66380;SDS011;53177;52.648;1.214;2023-09-12T09:06:10;7.15;;;2.60;;
66380;SDS011;53177;52.648;1.214;2023-09-12T09:08:37;6.07;;;2.22;;
66380;SDS011;53177;52.648;1.214;2023-09-12T09:11:04;7.20;;;2.40;;
66380;SDS011;53177;52.648;1.214;2023-09-12T09:13:31;7.00;;;2.38;;
66380;SDS011;53177;52.648;1.214;2023-09-12T09:16:10;5.47;;;2.25;;
66380;SDS011;53177;52.648;1.214;2023-09-12T09:18:49;6.32;;;2.33;;
66380;SDS011;53177;52.648;1.214;2023-09-12T09:21:30;6.88;;;2.60;;
66380;SDS011;53177;52.648;1.214;2023-09-12T09:24:10;7.22;;;2.50;;
66380;SDS011;53177;52.648;1.214;2023-09-12T09:26:46;6.18;;;2.00;;
66380;SDS011;53177;52.648;1.214;2023-09-12T09:29:16;5.57;;;2.20;;
66380;SDS011;53177;52.648;1.214;2023-09-12T09:31:44;6.22;;;2.25;;
66380;SDS011;53177;52.648;1.214;2023-09-12T09:34:14;7.07;;;2.42;;
66380;SDS011;53177;52.648;1.214;2023-09-12T09:36:40;7.10;;;2.38;;
66380;SDS011;53177;52.648;1.214;2023-09-12T09:39:08;7.70;;;2.33;;
66380;SDS011;53177;52.648;1.214;2023-09-12T09:41:34;4.97;;;2.10;;
66380;SDS011;53177;52.648;1.214;2023-09-12T09:43:59;7.93;;;2.60;;
66380;SDS011;53177;52.648;1.214;2023-09-12T09:46:26;6.43;;;2.47;;
66380;SDS011;53177;52.648;1.214;2023-09-12T09:48:51;6.50;;;2.38;;
66380;SDS011;53177;52.648;1.214;2023-09-12T09:51:17;5.97;;;2.40;;
66380;SDS011;53177;52.648;1.214;2023-09-12T09:53:44;5.95;;;2.10;;
66380;SDS011;53177;52.648;1.214;2023-09-12T09:56:15;8.35;;;2.63;;
66380;SDS011;53177;52.648;1.214;2023-09-12T09:58:51;5.77;;;2.17;;
66380;SDS011;53177;52.648;1.214;2023-09-12T10:01:27;6.38;;;2.53;;
66380;SDS011;53177;52.648;1.214;2023-09-12T10:03:56;5.93;;;2.30;;
66380;SDS011;53177;52.648;1.214;2023-09-12T10:06:24;5.60;;;2.05;;
66380;SDS011;53177;52.648;1.214;2023-09-12T10:08:52;7.38;;;2.35;;
66380;SDS011;53177;52.648;1.214;2023-09-12T10:11:19;5.97;;;2.00;;
66380;SDS011;53177;52.648;1.214;2023-09-12T10:13:54;6.72;;;2.30;;
66380;SDS011;53177;52.648;1.214;2023-09-12T10:16:25;6.75;;;2.33;;
66380;SDS011;53177;52.648;1.214;2023-09-12T10:21:32;5.20;;;2.05;;
66380;SDS011;53177;52.648;1.214;2023-09-12T10:23:59;7.13;;;2.10;;
66380;SDS011;53177;52.648;1.214;2023-09-12T10:26:28;6.45;;;2.30;;
66380;SDS011;53177;52.648;1.214;2023-09-12T10:28:56;5.40;;;2.20;;
66380;SDS011;53177;52.648;1.214;2023-09-12T10:31:24;5.95;;;2.10;;
66380;SDS011;53177;52.648;1.214;2023-09-12T10:33:50;6.70;;;2.20;;
66380;SDS011;53177;52.648;1.214;2023-09-12T10:36:17;6.90;;;2.22;;
66380;SDS011;53177;52.648;1.214;2023-09-12T10:38:43;6.38;;;2.20;;
66380;SDS011;53177;52.648;1.214;2023-09-12T10:41:12;6.55;;;2.00;;
66380;SDS011;53177;52.648;1.214;2023-09-12T10:43:41;6.38;;;2.00;;
66380;SDS011;53177;52.648;1.214;2023-09-12T10:46:11;6.23;;;2.00;;
66380;SDS011;53177;52.648;1.214;2023-09-12T10:48:36;5.93;;;3.10;;
66380;SDS011;53177;52.648;1.214;2023-09-12T10:51:04;6.80;;;3.00;;
66380;SDS011;53177;52.648;1.214;2023-09-12T10:53:32;8.10;;;2.83;;
66380;SDS011;53177;52.648;1.214;2023-09-12T10:56:22;7.80;;;2.60;;
66380;SDS011;53177;52.648;1.214;2023-09-12T11:01:35;6.40;;;3.40;;
66380;SDS011;53177;52.648;1.214;2023-09-12T11:06:46;9.30;;;4.78;;
66380;SDS011;53177;52.648;1.214;2023-09-12T11:09:15;9.75;;;4.13;;
66380;SDS011;53177;52.648;1.214;2023-09-12T11:11:42;8.77;;;4.07;;
66380;SDS011;53177;52.648;1.214;2023-09-12T11:14:08;8.87;;;3.90;;
66380;SDS011;53177;52.648;1.214;2023-09-12T11:16:34;8.65;;;4.10;;
66380;SDS011;53177;52.648;1.214;2023-09-12T11:21:45;8.25;;;3.97;;
66380;SDS011;53177;52.648;1.214;2023-09-12T11:24:12;9.60;;;3.88;;
66380;SDS011;53177;52.648;1.214;2023-09-12T11:29:29;7.03;;;3.67;;
66380;SDS011;53177;52.648;1.214;2023-09-12T11:32:01;6.90;;;3.45;;
66380;SDS011;53177;52.648;1.214;2023-09-12T11:34:29;7.63;;;3.83;;
66380;SDS011;53177;52.648;1.214;2023-09-12T11:37:01;7.00;;;3.63;;
66380;SDS011;53177;52.648;1.214;2023-09-12T11:39:31;8.93;;;2.93;;
66380;SDS011;53177;52.648;1.214;2023-09-12T11:42:00;6.97;;;3.25;;
66380;SDS011;53177;52.648;1.214;2023-09-12T11:44:26;7.85;;;3.60;;
66380;SDS011;53177;52.648;1.214;2023-09-12T11:46:53;7.53;;;3.40;;
66380;SDS011;53177;52.648;1.214;2023-09-12T11:49:20;7.32;;;3.60;;
66380;SDS011;53177;52.648;1.214;2023-09-12T11:51:49;6.27;;;3.20;;
66380;SDS011;53177;52.648;1.214;2023-09-12T11:54:17;7.32;;;3.80;;
66380;SDS011;53177;52.648;1.214;2023-09-12T11:56:49;6.88;;;3.10;;
66380;SDS011;53177;52.648;1.214;2023-09-12T11:59:20;6.35;;;3.00;;
66380;SDS011;53177;52.648;1.214;2023-09-12T12:01:46;6.88;;;3.33;;
66380;SDS011;53177;52.648;1.214;2023-09-12T12:04:12;7.50;;;2.90;;
66380;SDS011;53177;52.648;1.214;2023-09-12T12:06:38;6.78;;;2.90;;
66380;SDS011;53177;52.648;1.214;2023-09-12T12:09:03;6.63;;;2.60;;
66380;SDS011;53177;52.648;1.214;2023-09-12T12:11:29;5.63;;;2.77;;
66380;SDS011;53177;52.648;1.214;2023-09-12T12:13:56;6.23;;;2.90;;
66380;SDS011;53177;52.648;1.214;2023-09-12T12:16:21;7.00;;;2.95;;
66380;SDS011;53177;52.648;1.214;2023-09-12T12:18:47;6.57;;;2.60;;
66380;SDS011;53177;52.648;1.214;2023-09-12T12:21:12;6.17;;;2.80;;
66380;SDS011;53177;52.648;1.214;2023-09-12T12:23:37;8.77;;;3.33;;
66380;SDS011;53177;52.648;1.214;2023-09-12T12:26:07;5.53;;;2.77;;
66380;SDS011;53177;52.648;1.214;2023-09-12T12:28:34;7.18;;;2.90;;
66380;SDS011;53177;52.648;1.214;2023-09-12T12:31:00;6.10;;;3.03;;
66380;SDS011;53177;52.648;1.214;2023-09-12T12:33:26;5.82;;;2.70;;
66380;SDS011;53177;52.648;1.214;2023-09-12T12:36:25;8.70;;;3.20;;
66380;SDS011;53177;52.648;1.214;2023-09-12T12:38:45;6.95;;;3.00;;
66380;SDS011;53177;52.648;1.214;2023-09-12T12:41:13;7.88;;;2.90;;
66380;SDS011;53177;52.648;1.214;2023-09-12T12:43:40;7.30;;;2.72;;
66380;SDS011;53177;52.648;1.214;2023-09-12T12:46:09;7.45;;;2.80;;
66380;SDS011;53177;52.648;1.214;2023-09-12T12:48:36;7.07;;;2.90;;
66380;SDS011;53177;52.648;1.214;2023-09-12T12:51:13;6.93;;;3.15;;
66380;SDS011;53177;52.648;1.214;2023-09-12T12:53:44;7.65;;;3.10;;
66380;SDS011;53177;52.648;1.214;2023-09-12T12:56:21;7.57;;;3.03;;
66380;SDS011;53177;52.648;1.214;2023-09-12T12:58:49;8.57;;;3.03;;
66380;SDS011;53177;52.648;1.214;2023-09-12T13:01:20;7.00;;;3.03;;
66380;SDS011;53177;52.648;1.214;2023-09-12T13:03:46;10.40;;;3.65;;
66380;SDS011;53177;52.648;1.214;2023-09-12T13:06:14;9.93;;;3.97;;
66380;SDS011;53177;52.648;1.214;2023-09-12T13:08:43;7.93;;;2.60;;
66380;SDS011;53177;52.648;1.214;2023-09-12T13:11:09;6.78;;;2.70;;
66380;SDS011;53177;52.648;1.214;2023-09-12T13:13:36;6.95;;;2.90;;
66380;SDS011;53177;52.648;1.214;2023-09-12T13:16:03;6.60;;;2.70;;
66380;SDS011;53177;52.648;1.214;2023-09-12T13:18:34;6.93;;;2.58;;
66380;SDS011;53177;52.648;1.214;2023-09-12T13:21:00;6.73;;;2.60;;
66380;SDS011;53177;52.648;1.214;2023-09-12T13:23:26;5.30;;;2.40;;
66380;SDS011;53177;52.648;1.214;2023-09-12T13:25:53;6.45;;;2.60;;
66380;SDS011;53177;52.648;1.214;2023-09-12T13:28:18;5.33;;;2.10;;
66380;SDS011;53177;52.648;1.214;2023-09-12T13:30:44;5.03;;;2.30;;
66380;SDS011;53177;52.648;1.214;2023-09-12T13:33:10;5.85;;;2.33;;
66380;SDS011;53177;52.648;1.214;2023-09-12T13:35:36;5.63;;;2.38;;
66380;SDS011;53177;52.648;1.214;2023-09-12T13:38:02;5.20;;;2.20;;
66380;SDS011;53177;52.648;1.214;2023-09-12T13:40:28;5.85;;;2.08;;
66380;SDS011;53177;52.648;1.214;2023-09-12T13:42:54;5.47;;;2.23;;
66380;SDS011;53177;52.648;1.214;2023-09-12T13:45:19;6.40;;;2.50;;
66380;SDS011;53177;52.648;1.214;2023-09-12T13:47:45;5.93;;;2.40;;
66380;SDS011;53177;52.648;1.214;2023-09-12T13:50:10;7.63;;;2.67;;
66380;SDS011;53177;52.648;1.214;2023-09-12T13:52:37;6.63;;;2.40;;
66380;SDS011;53177;52.648;1.214;2023-09-12T13:55:02;5.80;;;2.43;;
66380;SDS011;53177;52.648;1.214;2023-09-12T13:57:28;7.70;;;2.40;;
66380;SDS011;53177;52.648;1.214;2023-09-12T13:59:54;6.72;;;2.35;;
66380;SDS011;53177;52.648;1.214;2023-09-12T14:02:19;10.20;;;2.60;;
66380;SDS011;53177;52.648;1.214;2023-09-12T14:04:45;7.70;;;2.50;;
66380;SDS011;53177;52.648;1.214;2023-09-12T14:07:10;5.80;;;2.60;;
66380;SDS011;53177;52.648;1.214;2023-09-12T14:09:36;6.90;;;2.60;;
66380;SDS011;53177;52.648;1.214;2023-09-12T14:12:01;6.73;;;2.70;;
66380;SDS011;53177;52.648;1.214;2023-09-12T14:14:28;7.32;;;2.75;;
66380;SDS011;53177;52.648;1.214;2023-09-12T14:16:53;9.13;;;3.10;;
66380;SDS011;53177;52.648;1.214;2023-09-12T14:19:19;7.25;;;2.60;;
66380;SDS011;53177;52.648;1.214;2023-09-12T14:21:44;8.23;;;3.00;;
66380;SDS011;53177;52.648;1.214;2023-09-12T14:24:09;9.00;;;3.03;;
66380;SDS011;53177;52.648;1.214;2023-09-12T14:26:35;10.67;;;3.53;;
66380;SDS011;53177;52.648;1.214;2023-09-12T14:29:00;9.37;;;3.80;;
66380;SDS011;53177;52.648;1.214;2023-09-12T14:31:25;8.60;;;3.58;;
66380;SDS011;53177;52.648;1.214;2023-09-12T14:33:51;13.03;;;4.03;;
66380;SDS011;53177;52.648;1.214;2023-09-12T14:36:17;10.43;;;4.00;;
66380;SDS011;53177;52.648;1.214;2023-09-12T14:38:44;11.07;;;3.37;;
66380;SDS011;53177;52.648;1.214;2023-09-12T14:41:11;8.68;;;3.45;;
66380;SDS011;53177;52.648;1.214;2023-09-12T14:43:38;6.63;;;2.70;;
66380;SDS011;53177;52.648;1.214;2023-09-12T14:46:03;10.63;;;2.90;;
66380;SDS011;53177;52.648;1.214;2023-09-12T14:48:30;9.40;;;2.65;;
66380;SDS011;53177;52.648;1.214;2023-09-12T14:50:58;8.20;;;2.40;;
66380;SDS011;53177;52.648;1.214;2023-09-12T14:53:26;7.50;;;2.30;;
66380;SDS011;53177;52.648;1.214;2023-09-12T14:55:55;7.82;;;2.50;;
66380;SDS011;53177;52.648;1.214;2023-09-12T14:58:20;11.35;;;2.92;;
66380;SDS011;53177;52.648;1.214;2023-09-12T15:00:46;7.72;;;3.50;;